createdAt,value
2023-04-11T00:00:08.867Z,11.50
2023-04-11T00:01:13.750Z,11.50
2023-04-11T00:02:16.302Z,11.50
2023-04-11T00:03:20.192Z,11.50
2023-04-11T00:04:23.012Z,11.50
2023-04-11T00:05:26.504Z,11.50
2023-04-11T00:06:28.776Z,11.50
2023-04-11T00:07:31.084Z,11.50
2023-04-11T00:08:33.391Z,11.50
2023-04-11T00:09:35.789Z,11.50
2023-04-11T00:10:38.257Z,11.50
2023-04-11T00:11:40.500Z,11.50
2023-04-11T00:12:42.768Z,11.50
2023-04-11T00:13:45.319Z,11.50
2023-04-11T00:14:49.050Z,11.50
2023-04-11T00:15:55.321Z,11.60
2023-04-11T00:17:01.065Z,11.50
2023-04-11T00:18:04.127Z,11.50
2023-04-11T00:19:07.485Z,11.50
2023-04-11T00:20:11.087Z,11.50
2023-04-11T00:21:13.349Z,11.50
2023-04-11T00:22:18.011Z,11.50
2023-04-11T00:23:20.437Z,11.50
2023-04-11T00:24:22.945Z,11.50
2023-04-11T00:25:25.266Z,11.50
2023-04-11T00:26:27.898Z,11.50
2023-04-11T00:27:30.175Z,11.60
2023-04-11T00:28:32.491Z,11.60
2023-04-11T00:29:36.857Z,11.60
2023-04-11T00:30:39.441Z,11.60
2023-04-11T00:31:41.821Z,11.60
2023-04-11T00:32:46.068Z,11.60
2023-04-11T00:33:48.460Z,11.50
2023-04-11T00:34:51.553Z,11.60
2023-04-11T00:35:53.895Z,11.60
2023-04-11T00:36:56.495Z,11.60
2023-04-11T00:37:59.027Z,11.60
2023-04-11T00:39:01.562Z,11.60
2023-04-11T00:40:05.864Z,11.50
2023-04-11T00:41:08.605Z,11.60
2023-04-11T00:42:11.663Z,11.50
2023-04-11T00:43:13.949Z,11.50
2023-04-11T00:44:16.221Z,11.50
2023-04-11T00:45:18.631Z,11.50
2023-04-11T00:46:21.847Z,11.50
2023-04-11T00:47:24.334Z,11.50
2023-04-11T00:48:28.686Z,11.50
2023-04-11T00:49:32.060Z,11.50
2023-04-11T00:50:39.512Z,11.50
2023-04-11T00:51:41.785Z,11.50
2023-04-11T00:52:46.874Z,11.50
2023-04-11T00:53:49.422Z,11.50
2023-04-11T00:54:51.728Z,11.50
2023-04-11T00:55:54.411Z,11.50
2023-04-11T00:57:04.369Z,11.50
2023-04-11T00:58:07.497Z,11.50
2023-04-11T00:59:10.429Z,11.50
2023-04-11T01:00:13.606Z,11.60
2023-04-11T01:01:16.712Z,11.60
2023-04-11T01:02:19.329Z,11.60
2023-04-11T01:03:22.952Z,11.60
2023-04-11T01:04:30.060Z,11.60
2023-04-11T01:05:34.170Z,11.60
2023-04-11T01:06:36.827Z,11.60
2023-04-11T01:07:42.285Z,11.60
2023-04-11T01:08:47.291Z,11.60
2023-04-11T01:09:50.048Z,11.60
2023-04-11T01:10:52.668Z,11.60
2023-04-11T01:11:56.218Z,11.60
2023-04-11T01:13:00.310Z,11.60
2023-04-11T01:14:03.196Z,11.60
2023-04-11T01:15:06.578Z,11.60
2023-04-11T01:16:10.214Z,11.60
2023-04-11T01:17:13.372Z,11.60
2023-04-11T01:18:15.711Z,11.60
2023-04-11T01:19:23.527Z,11.60
2023-04-11T01:20:26.655Z,11.60
2023-04-11T01:21:29.007Z,11.60
2023-04-11T01:22:31.769Z,11.60
2023-04-11T01:23:34.496Z,11.60
2023-04-11T01:24:36.926Z,11.60
2023-04-11T01:25:39.727Z,11.60
2023-04-11T01:26:42.794Z,11.60
2023-04-11T01:27:45.547Z,11.60
2023-04-11T01:28:47.893Z,11.60
2023-04-11T01:29:51.084Z,11.60
2023-04-11T01:30:53.379Z,11.60
2023-04-11T01:31:55.831Z,11.60
2023-04-11T01:32:58.254Z,11.60
2023-04-11T01:34:01.710Z,11.50
2023-04-11T01:35:05.215Z,11.50
2023-04-11T01:36:08.098Z,11.50
2023-04-11T01:37:10.413Z,11.50
2023-04-11T01:38:12.887Z,11.50
2023-04-11T01:39:15.473Z,11.50
2023-04-11T01:40:19.381Z,11.50
2023-04-11T01:41:22.354Z,11.50
2023-04-11T01:42:25.809Z,11.50
2023-04-11T01:43:28.114Z,11.50
2023-04-11T01:44:32.325Z,11.50
2023-04-11T01:45:35.391Z,11.50
2023-04-11T01:46:37.811Z,11.50
2023-04-11T01:47:40.220Z,11.50
2023-04-11T01:48:43.353Z,11.50
2023-04-11T01:49:46.142Z,11.50
2023-04-11T01:50:50.975Z,11.50
2023-04-11T01:51:53.340Z,11.50
2023-04-11T01:52:55.935Z,11.50
2023-04-11T01:53:58.301Z,11.50
2023-04-11T01:55:00.796Z,11.50
2023-04-11T01:56:03.358Z,11.50
2023-04-11T01:57:06.321Z,11.50
2023-04-11T01:58:08.551Z,11.50
2023-04-11T01:59:10.861Z,11.50
2023-04-11T02:00:13.973Z,11.50
2023-04-11T02:01:21.924Z,11.50
2023-04-11T02:02:25.997Z,11.50
2023-04-11T02:03:28.694Z,11.50
2023-04-11T02:04:31.119Z,11.50
2023-04-11T02:05:33.460Z,11.50
2023-04-11T02:06:35.870Z,11.50
2023-04-11T02:07:38.278Z,11.50
2023-04-11T02:08:40.566Z,11.50
2023-04-11T02:09:42.833Z,11.50
2023-04-11T02:10:45.197Z,11.50
2023-04-11T02:11:47.511Z,11.50
2023-04-11T02:12:52.024Z,11.50
2023-04-11T02:13:54.404Z,11.50
2023-04-11T02:14:56.704Z,11.50
2023-04-11T02:16:06.321Z,11.50
2023-04-11T02:17:09.942Z,11.40
2023-04-11T02:18:12.295Z,11.40
2023-04-11T02:19:14.586Z,11.40
2023-04-11T02:20:17.130Z,11.40
2023-04-11T02:21:19.411Z,11.40
2023-04-11T02:22:21.662Z,11.50
2023-04-11T02:23:24.282Z,11.40
2023-04-11T02:24:28.597Z,11.40
2023-04-11T02:25:31.634Z,11.40
2023-04-11T02:26:34.870Z,11.40
2023-04-11T02:27:37.164Z,11.40
2023-04-11T02:28:39.464Z,11.40
2023-04-11T02:29:41.724Z,11.40
2023-04-11T02:30:44.167Z,11.40
2023-04-11T02:31:49.274Z,11.40
2023-04-11T02:32:53.191Z,11.40
2023-04-11T02:33:55.754Z,11.30
2023-04-11T02:34:58.038Z,11.30
2023-04-11T02:36:00.318Z,11.30
2023-04-11T02:37:03.119Z,11.30
2023-04-11T02:38:05.535Z,11.30
2023-04-11T02:39:07.833Z,11.30
2023-04-11T02:40:10.480Z,11.30
2023-04-11T02:41:13.946Z,11.30
2023-04-11T02:42:16.231Z,11.40
2023-04-11T02:43:18.547Z,11.40
2023-04-11T02:44:22.634Z,11.40
2023-04-11T02:45:25.239Z,11.40
2023-04-11T02:46:27.579Z,11.40
2023-04-11T02:47:29.932Z,11.40
2023-04-11T02:48:36.781Z,11.40
2023-04-11T02:49:42.404Z,11.40
2023-04-11T02:50:45.863Z,11.30
2023-04-11T02:51:48.271Z,11.30
2023-04-11T02:52:51.025Z,11.40
2023-04-11T02:53:57.095Z,11.30
2023-04-11T02:54:59.620Z,11.30
2023-04-11T02:56:02.447Z,11.30
2023-04-11T02:57:04.895Z,11.30
2023-04-11T02:58:07.452Z,11.40
2023-04-11T02:59:09.733Z,11.40
2023-04-11T03:00:12.798Z,11.40
2023-04-11T03:01:24.974Z,11.40
2023-04-11T03:02:30.130Z,11.40
2023-04-11T03:03:33.647Z,11.40
2023-04-11T03:04:36.139Z,11.40
2023-04-11T03:05:47.930Z,11.40
2023-04-11T03:06:53.907Z,11.40
2023-04-11T03:07:57.815Z,11.40
2023-04-11T03:09:02.360Z,11.40
2023-04-11T03:10:05.126Z,11.40
2023-04-11T03:11:08.738Z,11.40
2023-04-11T03:12:11.456Z,11.40
2023-04-11T03:13:23.715Z,11.40
2023-04-11T03:14:26.175Z,11.40
2023-04-11T03:15:28.534Z,11.40
2023-04-11T03:16:30.936Z,11.40
2023-04-11T03:17:33.991Z,11.40
2023-04-11T03:18:36.945Z,11.40
2023-04-11T03:19:42.134Z,11.40
2023-04-11T03:20:45.019Z,11.40
2023-04-11T03:21:49.212Z,11.40
2023-04-11T03:22:51.993Z,11.40
2023-04-11T03:23:55.668Z,11.40
2023-04-11T03:24:57.973Z,11.40
2023-04-11T03:26:00.751Z,11.40
2023-04-11T03:27:03.507Z,11.40
2023-04-11T03:28:06.031Z,11.40
2023-04-11T03:29:08.637Z,11.50
2023-04-11T03:30:20.062Z,11.50
2023-04-11T03:31:23.647Z,11.50
2023-04-11T03:32:28.414Z,11.50
2023-04-11T03:33:30.765Z,11.50
2023-04-11T03:34:33.108Z,11.50
2023-04-11T03:35:36.862Z,11.50
2023-04-11T03:36:39.197Z,11.50
2023-04-11T03:37:41.896Z,11.50
2023-04-11T03:38:44.164Z,11.50
2023-04-11T03:39:46.434Z,11.50
2023-04-11T03:40:48.846Z,11.40
2023-04-11T03:41:55.863Z,11.50
2023-04-11T03:43:04.447Z,11.40
2023-04-11T03:44:08.818Z,11.40
2023-04-11T03:45:11.325Z,11.40
2023-04-11T03:46:13.736Z,11.40
2023-04-11T03:47:20.036Z,11.40
2023-04-11T03:48:29.658Z,11.40
2023-04-11T03:49:39.410Z,11.40
2023-04-11T03:50:42.341Z,11.40
2023-04-11T03:51:45.091Z,11.40
2023-04-11T03:52:47.415Z,11.40
2023-04-11T03:53:52.632Z,11.40
2023-04-11T03:55:00.701Z,11.40
2023-04-11T03:56:04.276Z,11.30
2023-04-11T03:57:11.809Z,11.30
2023-04-11T03:58:14.824Z,11.30
2023-04-11T03:59:18.249Z,11.20
2023-04-11T04:00:40.879Z,11.20
2023-04-11T04:01:44.729Z,11.20
2023-04-11T04:02:47.322Z,11.10
2023-04-11T04:03:51.389Z,11.10
2023-04-11T04:04:58.990Z,11.10
2023-04-11T04:06:05.094Z,11.00
2023-04-11T04:07:10.073Z,11.00
2023-04-11T04:08:16.359Z,10.90
2023-04-11T04:09:21.619Z,10.90
2023-04-11T04:10:28.282Z,10.80
2023-04-11T04:11:30.645Z,10.80
2023-04-11T04:12:33.893Z,10.70
2023-04-11T04:13:55.589Z,10.60
2023-04-11T04:14:58.267Z,10.60
2023-04-11T04:16:03.552Z,10.60
2023-04-11T04:17:06.305Z,10.50
2023-04-11T04:18:08.568Z,10.50
2023-04-11T04:19:22.063Z,10.50
2023-04-11T04:20:24.331Z,10.40
2023-04-11T04:21:33.010Z,10.40
2023-04-11T04:22:35.365Z,10.40
2023-04-11T04:23:47.642Z,10.30
2023-04-11T04:25:06.165Z,10.30
2023-04-11T04:26:13.229Z,10.30
2023-04-11T04:27:18.340Z,10.30
2023-04-11T04:28:22.820Z,10.20
2023-04-11T04:29:34.230Z,10.20
2023-04-11T04:30:38.951Z,10.20
2023-04-11T04:31:50.731Z,10.20
2023-04-11T04:32:59.098Z,10.20
2023-04-11T04:34:10.641Z,10.20
2023-04-11T04:35:18.187Z,10.20
2023-04-11T04:36:20.460Z,10.20
2023-04-11T04:37:25.882Z,10.20
2023-04-11T04:38:38.446Z,10.20
2023-04-11T04:39:43.778Z,10.20
2023-04-11T04:40:50.814Z,10.20
2023-04-11T04:41:58.337Z,10.20
2023-04-11T04:43:09.173Z,10.30
2023-04-11T04:44:17.695Z,10.30
2023-04-11T04:45:27.100Z,10.20
2023-04-11T04:46:31.942Z,10.30
2023-04-11T04:47:36.690Z,10.20
2023-04-11T04:48:38.959Z,10.20
2023-04-11T04:49:41.786Z,10.20
2023-04-11T04:50:45.839Z,10.20
2023-04-11T04:51:49.424Z,10.20
2023-04-11T04:52:51.736Z,10.20
2023-04-11T04:53:54.493Z,10.20
2023-04-11T04:55:01.732Z,10.20
2023-04-11T04:56:04.695Z,10.20
2023-04-11T04:57:10.331Z,10.20
2023-04-11T04:58:12.915Z,10.20
2023-04-11T04:59:16.336Z,10.20
2023-04-11T05:00:23.430Z,10.20
2023-04-11T05:01:27.876Z,10.20
2023-04-11T05:02:33.650Z,10.20
2023-04-11T05:03:38.799Z,10.10
2023-04-11T05:04:46.015Z,10.10
2023-04-11T05:05:49.728Z,10.10
2023-04-11T05:06:52.279Z,10.10
2023-04-11T05:07:54.738Z,10.10
2023-04-11T05:08:59.048Z,10.10
2023-04-11T05:10:01.516Z,10.10
2023-04-11T05:11:04.760Z,10.10
2023-04-11T05:12:08.489Z,10.10
2023-04-11T05:13:13.351Z,10.10
2023-04-11T05:14:15.850Z,10.10
2023-04-11T05:15:18.668Z,10.10
2023-04-11T05:16:21.913Z,10.10
2023-04-11T05:17:26.281Z,10.10
2023-04-11T05:18:30.604Z,10.00
2023-04-11T05:19:33.321Z,10.10
2023-04-11T05:20:36.582Z,10.00
2023-04-11T05:21:39.829Z,10.10
2023-04-11T05:22:42.352Z,10.10
2023-04-11T05:23:44.888Z,10.10
2023-04-11T05:24:47.783Z,10.00
2023-04-11T05:25:51.767Z,10.00
2023-04-11T05:26:54.167Z,10.00
2023-04-11T05:27:56.472Z,10.00
2023-04-11T05:29:01.441Z,10.00
2023-04-11T05:30:04.425Z,10.00
2023-04-11T05:31:12.218Z,10.00
2023-04-11T05:32:15.484Z,10.00
2023-04-11T05:33:18.536Z,10.00
2023-04-11T05:34:20.978Z,10.00
2023-04-11T05:35:25.178Z,10.00
2023-04-11T05:36:30.322Z,10.00
2023-04-11T05:37:32.630Z,10.00
2023-04-11T05:38:35.110Z,10.00
2023-04-11T05:39:37.612Z,10.00
2023-04-11T05:40:40.042Z,10.00
2023-04-11T05:41:43.231Z,10.00
2023-04-11T05:42:46.105Z,10.00
2023-04-11T05:43:48.412Z,10.00
2023-04-11T05:44:50.945Z,10.00
2023-04-11T05:45:53.248Z,10.00
2023-04-11T05:46:55.765Z,10.10
2023-04-11T05:47:58.371Z,10.10
2023-04-11T05:49:00.993Z,10.10
2023-04-11T05:50:03.772Z,10.10
2023-04-11T05:51:08.350Z,10.10
2023-04-11T05:52:10.621Z,10.20
2023-04-11T05:53:13.110Z,10.10
2023-04-11T05:54:32.644Z,10.20
2023-04-11T05:55:35.019Z,10.20
2023-04-11T05:56:39.817Z,10.20
2023-04-11T05:57:42.075Z,10.20
2023-04-11T05:58:44.480Z,10.30
2023-04-11T05:59:49.966Z,10.40
2023-04-11T06:00:52.779Z,10.40
2023-04-11T06:01:55.096Z,10.50
2023-04-11T06:02:57.787Z,10.50
2023-04-11T06:04:00.262Z,10.50
2023-04-11T06:05:04.195Z,10.60
2023-04-11T06:06:06.923Z,10.70
2023-04-11T06:07:09.418Z,10.70
2023-04-11T06:08:12.170Z,10.80
2023-04-11T06:09:14.594Z,10.80
2023-04-11T06:10:16.822Z,10.90
2023-04-11T06:11:19.124Z,11.00
2023-04-11T06:12:21.439Z,11.00
2023-04-11T06:13:23.747Z,11.10
2023-04-11T06:14:26.091Z,11.00
2023-04-11T06:15:29.669Z,11.00
2023-04-11T06:16:33.582Z,11.10
2023-04-11T06:17:35.907Z,11.10
2023-04-11T06:18:38.270Z,11.00
2023-04-11T06:19:40.541Z,11.00
2023-04-11T06:20:42.883Z,11.10
2023-04-11T06:21:45.307Z,11.00
2023-04-11T06:22:51.230Z,11.10
2023-04-11T06:23:53.689Z,11.00
2023-04-11T06:24:56.195Z,11.00
2023-04-11T06:25:58.486Z,11.00
2023-04-11T06:27:00.807Z,11.00
2023-04-11T06:28:03.137Z,11.00
2023-04-11T06:29:06.209Z,11.00
2023-04-11T06:30:09.639Z,10.90
2023-04-11T06:31:12.097Z,10.90
2023-04-11T06:32:14.598Z,10.90
2023-04-11T06:33:17.105Z,10.90
2023-04-11T06:34:19.341Z,10.90
2023-04-11T06:35:24.877Z,10.90
2023-04-11T06:36:27.573Z,10.90
2023-04-11T06:37:29.824Z,10.90
2023-04-11T06:38:32.088Z,11.00
2023-04-11T06:39:34.877Z,11.00
2023-04-11T06:40:37.512Z,11.00
2023-04-11T06:41:39.762Z,11.10
2023-04-11T06:42:42.734Z,11.10
2023-04-11T06:43:45.605Z,11.10
2023-04-11T06:44:48.884Z,11.10
2023-04-11T06:45:51.705Z,11.10
2023-04-11T06:46:54.781Z,11.10
2023-04-11T06:47:57.267Z,11.20
2023-04-11T06:48:59.565Z,11.20
2023-04-11T06:50:02.067Z,11.20
2023-04-11T06:51:04.611Z,11.20
2023-04-11T06:52:07.106Z,11.30
2023-04-11T06:53:10.140Z,11.30
2023-04-11T06:54:12.992Z,11.40
2023-04-11T06:55:15.756Z,11.40
2023-04-11T06:56:18.052Z,11.40
2023-04-11T06:57:20.732Z,11.50
2023-04-11T06:58:23.049Z,11.50
2023-04-11T06:59:25.355Z,11.60
2023-04-11T07:00:28.092Z,11.60
2023-04-11T07:01:37.829Z,11.70
2023-04-11T07:02:41.132Z,11.70
2023-04-11T07:03:43.800Z,11.80
2023-04-11T07:04:46.187Z,11.80
2023-04-11T07:05:48.631Z,11.90
2023-04-11T07:06:51.251Z,11.90
2023-04-11T07:07:54.669Z,11.80
2023-04-11T07:08:57.090Z,11.80
2023-04-11T07:09:59.337Z,11.90
2023-04-11T07:11:01.613Z,11.80
2023-04-11T07:12:05.186Z,11.80
2023-04-11T07:13:07.510Z,11.80
2023-04-11T07:14:09.788Z,11.70
2023-04-11T07:15:12.098Z,11.70
2023-04-11T07:16:14.386Z,11.70
2023-04-11T07:17:16.972Z,11.70
2023-04-11T07:18:19.271Z,11.60
2023-04-11T07:19:21.534Z,11.60
2023-04-11T07:20:23.821Z,11.60
2023-04-11T07:21:28.861Z,11.60
2023-04-11T07:22:31.121Z,11.60
2023-04-11T07:23:33.489Z,11.70
2023-04-11T07:24:36.306Z,11.70
2023-04-11T07:25:39.314Z,11.80
2023-04-11T07:26:42.450Z,11.80
2023-04-11T07:27:46.541Z,11.80
2023-04-11T07:28:48.865Z,11.90
2023-04-11T07:29:51.313Z,11.90
2023-04-11T07:30:53.549Z,11.90
2023-04-11T07:31:56.026Z,12.00
2023-04-11T07:32:58.760Z,12.00
2023-04-11T07:34:01.531Z,12.00
2023-04-11T07:35:03.893Z,12.00
2023-04-11T07:36:07.558Z,12.10
2023-04-11T07:37:09.878Z,12.00
2023-04-11T07:38:12.620Z,12.00
2023-04-11T07:39:16.401Z,12.10
2023-04-11T07:40:19.012Z,12.00
2023-04-11T07:41:21.865Z,12.10
2023-04-11T07:42:24.168Z,12.00
2023-04-11T07:43:27.679Z,12.00
2023-04-11T07:44:29.923Z,12.00
2023-04-11T07:45:33.496Z,12.00
2023-04-11T07:46:36.011Z,12.00
2023-04-11T07:47:38.493Z,12.00
2023-04-11T07:48:41.936Z,12.00
2023-04-11T07:49:44.204Z,12.00
2023-04-11T07:50:46.465Z,12.00
2023-04-11T07:51:48.778Z,12.00
2023-04-11T07:52:51.582Z,12.00
2023-04-11T07:53:54.590Z,11.90
2023-04-11T07:54:57.074Z,11.90
2023-04-11T07:55:59.929Z,11.90
2023-04-11T07:57:02.309Z,11.90
2023-04-11T07:58:05.236Z,11.90
2023-04-11T07:59:07.560Z,11.90
2023-04-11T08:00:20.106Z,11.90
2023-04-11T08:01:25.067Z,11.90
2023-04-11T08:02:27.762Z,11.90
2023-04-11T08:03:30.391Z,11.90
2023-04-11T08:04:33.807Z,12.00
2023-04-11T08:05:37.664Z,12.00
2023-04-11T08:06:40.011Z,12.10
2023-04-11T08:07:42.392Z,12.20
2023-04-11T08:08:45.883Z,12.30
2023-04-11T08:09:48.180Z,12.30
2023-04-11T08:10:52.148Z,12.40
2023-04-11T08:11:56.780Z,12.50
2023-04-11T08:12:59.354Z,12.50
2023-04-11T08:14:01.632Z,12.60
2023-04-11T08:15:04.973Z,12.70
2023-04-11T08:16:10.271Z,12.70
2023-04-11T08:17:27.060Z,12.70
2023-04-11T08:18:31.362Z,12.70
2023-04-11T08:19:33.650Z,12.70
2023-04-11T08:20:36.090Z,12.70
2023-04-11T08:21:38.771Z,12.70
2023-04-11T08:22:44.523Z,12.70
2023-04-11T08:23:47.385Z,12.60
2023-04-11T08:24:49.811Z,12.70
2023-04-11T08:25:52.213Z,12.70
2023-04-11T08:26:54.508Z,12.60
2023-04-11T08:27:56.753Z,12.60
2023-04-11T08:28:59.108Z,12.60
2023-04-11T08:30:01.530Z,12.60
2023-04-11T08:31:05.463Z,12.60
2023-04-11T08:32:07.777Z,12.50
2023-04-11T08:33:10.379Z,12.50
2023-04-11T08:34:13.203Z,12.50
2023-04-11T08:35:15.597Z,12.40
2023-04-11T08:36:18.100Z,12.40
2023-04-11T08:37:20.438Z,12.30
2023-04-11T08:38:22.659Z,12.30
2023-04-11T08:39:25.089Z,12.30
2023-04-11T08:40:28.364Z,12.20
2023-04-11T08:41:30.943Z,12.20
2023-04-11T08:42:34.196Z,12.00
2023-04-11T08:43:37.903Z,12.00
2023-04-11T08:44:40.193Z,11.90
2023-04-11T08:45:42.856Z,12.00
2023-04-11T08:46:45.239Z,12.00
2023-04-11T08:47:47.648Z,12.00
2023-04-11T08:48:51.102Z,12.00
2023-04-11T08:49:54.107Z,12.00
2023-04-11T08:50:56.710Z,12.00
2023-04-11T08:51:59.926Z,12.00
2023-04-11T08:53:03.854Z,12.00
2023-04-11T08:54:07.160Z,11.90
2023-04-11T08:55:09.814Z,11.90
2023-04-11T08:56:16.641Z,11.90
2023-04-11T08:57:27.573Z,12.00
2023-04-11T08:58:30.141Z,12.00
2023-04-11T08:59:34.104Z,12.00
2023-04-11T09:00:36.408Z,12.00
2023-04-11T09:01:40.665Z,12.00
2023-04-11T09:02:54.865Z,12.00
2023-04-11T09:03:58.179Z,12.10
2023-04-11T09:05:00.741Z,12.10
2023-04-11T09:06:10.430Z,12.10
2023-04-11T09:07:13.172Z,12.10
2023-04-11T09:08:16.963Z,12.00
2023-04-11T09:09:29.927Z,12.00
2023-04-11T09:10:32.991Z,12.00
2023-04-11T09:11:54.939Z,12.00
2023-04-11T09:12:59.004Z,12.10
2023-04-11T09:14:11.238Z,12.10
2023-04-11T09:15:24.318Z,12.20
2023-04-11T09:16:27.136Z,12.40
2023-04-11T09:17:40.902Z,12.50
2023-04-11T09:18:46.544Z,12.80
2023-04-11T09:19:49.614Z,12.90
2023-04-11T09:21:04.305Z,13.10
2023-04-11T09:22:07.275Z,13.30
2023-04-11T09:23:24.305Z,13.50
2023-04-11T09:24:29.627Z,13.70
2023-04-11T09:25:45.423Z,13.80
2023-04-11T09:26:47.699Z,14.00
2023-04-11T09:28:06.597Z,14.10
2023-04-11T09:29:08.952Z,14.30
2023-04-11T09:30:25.296Z,14.50
2023-04-11T09:31:44.628Z,14.60
2023-04-11T09:32:48.698Z,14.70
2023-04-11T09:33:56.048Z,14.80
2023-04-11T09:35:12.779Z,14.90
2023-04-11T09:36:20.656Z,14.90
2023-04-11T09:37:23.109Z,14.90
2023-04-11T09:38:36.649Z,14.80
2023-04-11T09:39:38.995Z,14.70
2023-04-11T09:40:44.549Z,14.70
2023-04-11T09:41:47.036Z,14.60
2023-04-11T09:42:56.595Z,14.50
2023-04-11T09:43:59.841Z,14.40
2023-04-11T09:45:02.469Z,14.30
2023-04-11T09:46:09.688Z,14.20
2023-04-11T09:47:12.418Z,14.10
2023-04-11T09:48:16.057Z,14.10
2023-04-11T09:49:18.376Z,14.00
2023-04-11T09:50:21.196Z,14.00
2023-04-11T09:51:35.690Z,14.00
2023-04-11T09:52:43.909Z,14.00
2023-04-11T09:53:46.256Z,14.00
2023-04-11T09:54:51.041Z,14.00
2023-04-11T09:55:54.137Z,14.00
2023-04-11T09:56:58.381Z,14.00
2023-04-11T09:58:00.969Z,14.00
2023-04-11T09:59:04.433Z,14.00
2023-04-11T10:00:14.544Z,14.00
2023-04-11T10:01:20.097Z,14.10
2023-04-11T10:02:22.556Z,14.00
2023-04-11T10:03:28.441Z,14.00
2023-04-11T10:04:31.149Z,14.00
2023-04-11T10:05:34.234Z,13.90
2023-04-11T10:07:13.011Z,13.90
2023-04-11T10:08:28.367Z,13.90
2023-04-11T10:09:32.422Z,13.90
2023-04-11T10:10:36.201Z,14.00
2023-04-11T10:11:44.749Z,14.10
2023-04-11T10:12:47.273Z,14.20
2023-04-11T10:13:50.207Z,14.40
2023-04-11T10:14:52.690Z,14.50
2023-04-11T10:16:09.464Z,14.50
2023-04-11T10:17:18.569Z,14.70
2023-04-11T10:18:23.433Z,14.80
2023-04-11T10:19:25.803Z,14.80
2023-04-11T10:20:46.240Z,14.80
2023-04-11T10:21:48.690Z,14.90
2023-04-11T10:22:51.085Z,14.80
2023-04-11T10:24:17.584Z,14.70
2023-04-11T10:25:21.905Z,14.30
2023-04-11T10:26:48.890Z,13.90
2023-04-11T10:28:00.990Z,13.40
2023-04-11T10:29:23.549Z,13.00
2023-04-11T10:30:41.286Z,12.80
2023-04-11T10:32:12.975Z,12.50
2023-04-11T10:33:17.643Z,12.30
2023-04-11T10:34:20.285Z,12.30
2023-04-11T10:35:23.290Z,12.40
2023-04-11T10:36:26.453Z,12.50
2023-04-11T10:37:33.629Z,12.50
2023-04-11T10:38:43.332Z,12.60
2023-04-11T10:39:51.703Z,12.80
2023-04-11T10:41:18.541Z,12.90
2023-04-11T10:42:32.848Z,13.20
2023-04-11T10:43:39.101Z,13.50
2023-04-11T10:44:41.601Z,13.60
2023-04-11T10:45:44.683Z,13.70
2023-04-11T10:46:53.809Z,13.80
2023-04-11T10:47:56.669Z,13.80
2023-04-11T10:49:04.735Z,13.70
2023-04-11T10:50:27.393Z,13.60
2023-04-11T10:51:31.599Z,13.50
2023-04-11T10:52:38.495Z,13.40
2023-04-11T10:53:41.100Z,13.20
2023-04-11T10:54:46.144Z,13.10
2023-04-11T10:55:50.672Z,13.00
2023-04-11T10:56:54.906Z,12.90
2023-04-11T10:58:10.892Z,12.80
2023-04-11T10:59:31.649Z,12.60
2023-04-11T11:00:55.759Z,12.60
2023-04-11T11:02:02.370Z,12.50
2023-04-11T11:03:28.182Z,12.50
2023-04-11T11:04:35.584Z,12.50
2023-04-11T11:05:39.980Z,12.40
2023-04-11T11:06:50.940Z,12.40
2023-04-11T11:07:54.088Z,12.40
2023-04-11T11:08:56.623Z,12.40
2023-04-11T11:09:58.953Z,12.40
2023-04-11T11:11:02.209Z,12.40
2023-04-11T11:12:09.521Z,12.50
2023-04-11T11:13:16.438Z,12.60
2023-04-11T11:14:30.985Z,12.80
2023-04-11T11:15:38.004Z,13.10
2023-04-11T11:16:46.238Z,13.20
2023-04-11T11:17:48.806Z,13.30
2023-04-11T11:18:53.504Z,13.40
2023-04-11T11:19:55.844Z,13.50
2023-04-11T11:20:58.183Z,13.60
2023-04-11T11:22:03.679Z,13.70
2023-04-11T11:23:08.538Z,13.80
2023-04-11T11:24:11.442Z,13.90
2023-04-11T11:25:14.074Z,13.90
2023-04-11T11:26:16.426Z,13.90
2023-04-11T11:27:20.374Z,13.90
2023-04-11T11:28:23.064Z,13.90
2023-04-11T11:29:39.411Z,13.90
2023-04-11T11:30:55.047Z,13.90
2023-04-11T11:32:00.144Z,13.80
2023-04-11T11:33:18.274Z,13.80
2023-04-11T11:34:28.981Z,13.80
2023-04-11T11:35:31.392Z,13.90
2023-04-11T11:36:38.781Z,13.90
2023-04-11T11:37:41.921Z,13.90
2023-04-11T11:38:44.782Z,13.90
2023-04-11T11:39:48.420Z,13.80
2023-04-11T11:40:51.716Z,13.70
2023-04-11T11:41:54.321Z,13.60
2023-04-11T11:42:56.671Z,13.50
2023-04-11T11:43:59.047Z,13.40
2023-04-11T11:45:18.037Z,13.20
2023-04-11T11:46:20.748Z,13.00
2023-04-11T11:47:23.709Z,13.00
2023-04-11T11:48:26.084Z,12.90
2023-04-11T11:49:42.670Z,12.80
2023-04-11T11:50:45.264Z,12.80
2023-04-11T11:51:48.084Z,12.80
2023-04-11T11:52:50.373Z,12.80
2023-04-11T11:54:08.716Z,12.80
2023-04-11T11:55:19.867Z,12.90
2023-04-11T11:56:22.268Z,13.00
2023-04-11T11:57:24.734Z,13.10
2023-04-11T11:58:27.424Z,13.20
2023-04-11T11:59:29.993Z,13.30
2023-04-11T12:00:37.817Z,13.30
2023-04-11T12:01:43.492Z,13.40
2023-04-11T12:02:46.191Z,13.40
2023-04-11T12:03:51.577Z,13.30
2023-04-11T12:05:00.340Z,13.30
2023-04-11T12:06:03.077Z,13.20
2023-04-11T12:07:10.151Z,13.20
2023-04-11T12:08:12.485Z,13.20
2023-04-11T12:09:14.796Z,13.10
2023-04-11T12:10:17.407Z,13.20
2023-04-11T12:11:19.932Z,13.20
2023-04-11T12:12:22.336Z,13.20
2023-04-11T12:13:28.315Z,13.30
2023-04-11T12:14:30.698Z,13.30
2023-04-11T12:15:35.860Z,13.40
2023-04-11T12:16:38.838Z,13.40
2023-04-11T12:17:41.487Z,13.50
2023-04-11T12:18:44.060Z,13.50
2023-04-11T12:19:46.321Z,13.50
2023-04-11T12:20:49.002Z,13.60
2023-04-11T12:21:53.092Z,13.60
2023-04-11T12:22:56.292Z,13.70
2023-04-11T12:23:58.964Z,13.70
2023-04-11T12:25:12.415Z,13.70
2023-04-11T12:26:15.676Z,13.80
2023-04-11T12:27:18.173Z,13.80
2023-04-11T12:28:20.622Z,13.80
2023-04-11T12:29:24.384Z,13.90
2023-04-11T12:30:30.114Z,14.00
2023-04-11T12:31:32.706Z,14.10
2023-04-11T12:32:35.588Z,14.10
2023-04-11T12:33:38.257Z,14.20
2023-04-11T12:34:40.502Z,14.20
2023-04-11T12:35:42.830Z,14.20
2023-04-11T12:36:45.232Z,14.20
2023-04-11T12:37:47.583Z,14.20
2023-04-11T12:38:49.945Z,14.20
2023-04-11T12:39:52.229Z,14.10
2023-04-11T12:41:13.979Z,14.10
2023-04-11T12:42:21.022Z,14.20
2023-04-11T12:43:26.508Z,14.10
2023-04-11T12:44:28.944Z,14.00
2023-04-11T12:45:33.355Z,14.00
2023-04-11T12:46:36.300Z,13.90
2023-04-11T12:47:39.274Z,13.90
2023-04-11T12:48:41.580Z,13.90
2023-04-11T12:49:44.004Z,13.90
2023-04-11T12:50:46.330Z,14.00
2023-04-11T12:51:48.885Z,14.00
2023-04-11T12:52:51.598Z,14.20
2023-04-11T12:53:53.913Z,14.30
2023-04-11T12:54:56.552Z,14.50
2023-04-11T12:55:58.988Z,14.60
2023-04-11T12:57:05.726Z,14.70
2023-04-11T12:58:09.466Z,14.90
2023-04-11T12:59:11.917Z,15.00
2023-04-11T13:00:15.306Z,15.10
2023-04-11T13:01:18.338Z,15.20
2023-04-11T13:02:21.208Z,15.20
2023-04-11T13:03:29.666Z,15.20
2023-04-11T13:04:33.032Z,15.10
2023-04-11T13:05:37.147Z,14.90
2023-04-11T13:06:39.472Z,14.50
2023-04-11T13:07:42.817Z,14.20
2023-04-11T13:08:45.370Z,13.90
2023-04-11T13:09:49.549Z,13.60
2023-04-11T13:10:53.053Z,13.30
2023-04-11T13:11:56.913Z,13.10
2023-04-11T13:13:05.410Z,12.80
2023-04-11T13:14:14.397Z,12.70
2023-04-11T13:15:17.295Z,12.40
2023-04-11T13:16:19.747Z,12.30
2023-04-11T13:17:22.722Z,12.10
2023-04-11T13:18:25.117Z,11.90
2023-04-11T13:19:27.503Z,11.90
2023-04-11T13:20:29.866Z,11.80
2023-04-11T13:21:32.695Z,11.70
2023-04-11T13:22:35.070Z,11.60
2023-04-11T13:23:37.485Z,11.50
2023-04-11T13:24:39.874Z,11.40
2023-04-11T13:25:42.216Z,11.40
2023-04-11T13:26:45.214Z,11.30
2023-04-11T13:27:47.710Z,11.20
2023-04-11T13:28:50.077Z,11.20
2023-04-11T13:29:52.400Z,11.10
2023-04-11T13:30:56.495Z,11.10
2023-04-11T13:31:58.775Z,11.10
2023-04-11T13:33:01.163Z,11.00
2023-04-11T13:34:03.518Z,11.00
2023-04-11T13:35:07.152Z,11.00
2023-04-11T13:36:10.060Z,11.00
2023-04-11T13:37:12.691Z,11.00
2023-04-11T13:38:15.003Z,11.00
2023-04-11T13:39:17.321Z,11.00
2023-04-11T13:40:19.655Z,11.10
2023-04-11T13:41:23.108Z,11.10
2023-04-11T13:42:26.083Z,11.10
2023-04-11T13:43:28.471Z,11.10
2023-04-11T13:44:30.755Z,11.20
2023-04-11T13:45:33.078Z,11.20
2023-04-11T13:46:35.416Z,11.30
2023-04-11T13:47:38.962Z,11.30
2023-04-11T13:48:41.569Z,11.40
2023-04-11T13:49:44.542Z,11.50
2023-04-11T13:50:46.809Z,11.60